sensor_id;sensor_type;location;lat;lon;timestamp;P1;durP1;ratioP1;P2;durP2;ratioP2
60169;SDS011;46042;49.444;6.862;2023-07-13T00:01:52;6.13;;;2.58;;
60169;SDS011;46042;49.444;6.862;2023-07-13T00:04:22;3.60;;;2.20;;
60169;SDS011;46042;49.444;6.862;2023-07-13T00:06:51;5.20;;;2.38;;
60169;SDS011;46042;49.444;6.862;2023-07-13T00:09:18;3.10;;;2.28;;
60169;SDS011;46042;49.444;6.862;2023-07-13T00:11:49;6.13;;;2.50;;
60169;SDS011;46042;49.444;6.862;2023-07-13T00:14:18;3.35;;;2.13;;
60169;SDS011;46042;49.444;6.862;2023-07-13T00:16:45;6.25;;;2.17;;
60169;SDS011;46042;49.444;6.862;2023-07-13T00:19:12;4.15;;;2.28;;
60169;SDS011;46042;49.444;6.862;2023-07-13T00:21:40;5.50;;;2.00;;
60169;SDS011;46042;49.444;6.862;2023-07-13T00:24:11;10.52;;;2.70;;
60169;SDS011;46042;49.444;6.862;2023-07-13T00:26:41;3.35;;;2.28;;
60169;SDS011;46042;49.444;6.862;2023-07-13T00:29:12;3.90;;;2.42;;
60169;SDS011;46042;49.444;6.862;2023-07-13T00:31:40;5.85;;;2.40;;
60169;SDS011;46042;49.444;6.862;2023-07-13T00:34:06;4.85;;;2.63;;
60169;SDS011;46042;49.444;6.862;2023-07-13T00:36:33;7.93;;;2.67;;
60169;SDS011;46042;49.444;6.862;2023-07-13T00:39:00;5.60;;;2.40;;
60169;SDS011;46042;49.444;6.862;2023-07-13T00:41:27;3.22;;;2.40;;
60169;SDS011;46042;49.444;6.862;2023-07-13T00:43:54;5.03;;;2.33;;
60169;SDS011;46042;49.444;6.862;2023-07-13T00:46:25;6.95;;;2.70;;
60169;SDS011;46042;49.444;6.862;2023-07-13T00:48:54;4.68;;;2.95;;
60169;SDS011;46042;49.444;6.862;2023-07-13T00:51:34;11.98;;;3.47;;
60169;SDS011;46042;49.444;6.862;2023-07-13T00:54:05;6.43;;;3.13;;
60169;SDS011;46042;49.444;6.862;2023-07-13T00:59:03;3.80;;;2.63;;
60169;SDS011;46042;49.444;6.862;2023-07-13T01:01:33;6.93;;;3.07;;
60169;SDS011;46042;49.444;6.862;2023-07-13T01:03:59;9.15;;;3.38;;
60169;SDS011;46042;49.444;6.862;2023-07-13T01:06:26;6.68;;;3.20;;
60169;SDS011;46042;49.444;6.862;2023-07-13T01:08:53;5.78;;;2.70;;
60169;SDS011;46042;49.444;6.862;2023-07-13T01:11:21;5.53;;;2.83;;
60169;SDS011;46042;49.444;6.862;2023-07-13T01:13:48;6.80;;;2.47;;
60169;SDS011;46042;49.444;6.862;2023-07-13T01:16:24;7.18;;;3.22;;
60169;SDS011;46042;49.444;6.862;2023-07-13T01:18:54;12.75;;;2.97;;
60169;SDS011;46042;49.444;6.862;2023-07-13T01:21:25;7.97;;;3.50;;
60169;SDS011;46042;49.444;6.862;2023-07-13T01:23:52;6.05;;;2.97;;
60169;SDS011;46042;49.444;6.862;2023-07-13T01:26:19;6.35;;;2.83;;
60169;SDS011;46042;49.444;6.862;2023-07-13T01:28:46;7.05;;;2.60;;
60169;SDS011;46042;49.444;6.862;2023-07-13T01:31:12;6.28;;;3.00;;
60169;SDS011;46042;49.444;6.862;2023-07-13T01:33:39;8.45;;;2.67;;
60169;SDS011;46042;49.444;6.862;2023-07-13T01:36:07;4.97;;;2.95;;
60169;SDS011;46042;49.444;6.862;2023-07-13T01:38:36;6.13;;;2.83;;
60169;SDS011;46042;49.444;6.862;2023-07-13T01:41:03;6.88;;;3.15;;
60169;SDS011;46042;49.444;6.862;2023-07-13T01:43:30;7.22;;;2.95;;
60169;SDS011;46042;49.444;6.862;2023-07-13T01:45:57;12.18;;;3.08;;
60169;SDS011;46042;49.444;6.862;2023-07-13T01:48:43;3.97;;;2.75;;
60169;SDS011;46042;49.444;6.862;2023-07-13T01:51:10;7.68;;;3.00;;
60169;SDS011;46042;49.444;6.862;2023-07-13T01:53:37;8.05;;;3.25;;
60169;SDS011;46042;49.444;6.862;2023-07-13T01:56:03;5.28;;;2.78;;
60169;SDS011;46042;49.444;6.862;2023-07-13T01:58:30;3.97;;;2.60;;
60169;SDS011;46042;49.444;6.862;2023-07-13T02:00:57;7.88;;;3.20;;
60169;SDS011;46042;49.444;6.862;2023-07-13T02:03:24;4.65;;;2.90;;
60169;SDS011;46042;49.444;6.862;2023-07-13T02:05:50;3.40;;;2.60;;
60169;SDS011;46042;49.444;6.862;2023-07-13T02:08:17;3.92;;;2.55;;
60169;SDS011;46042;49.444;6.862;2023-07-13T02:10:44;5.95;;;2.83;;
60169;SDS011;46042;49.444;6.862;2023-07-13T02:13:11;6.85;;;2.78;;
60169;SDS011;46042;49.444;6.862;2023-07-13T02:15:40;4.78;;;2.65;;
60169;SDS011;46042;49.444;6.862;2023-07-13T02:18:07;7.85;;;3.13;;
60169;SDS011;46042;49.444;6.862;2023-07-13T02:20:35;4.10;;;2.75;;
60169;SDS011;46042;49.444;6.862;2023-07-13T02:23:02;5.38;;;2.80;;
60169;SDS011;46042;49.444;6.862;2023-07-13T02:25:29;6.80;;;2.90;;
60169;SDS011;46042;49.444;6.862;2023-07-13T02:27:55;6.25;;;2.50;;
60169;SDS011;46042;49.444;6.862;2023-07-13T02:30:22;4.40;;;2.80;;
60169;SDS011;46042;49.444;6.862;2023-07-13T02:32:51;5.00;;;2.65;;
60169;SDS011;46042;49.444;6.862;2023-07-13T02:35:18;6.25;;;2.58;;
60169;SDS011;46042;49.444;6.862;2023-07-13T02:37:44;6.43;;;2.85;;
60169;SDS011;46042;49.444;6.862;2023-07-13T02:40:11;4.90;;;2.35;;
60169;SDS011;46042;49.444;6.862;2023-07-13T02:42:38;4.20;;;2.88;;
60169;SDS011;46042;49.444;6.862;2023-07-13T02:45:06;5.97;;;3.10;;
60169;SDS011;46042;49.444;6.862;2023-07-13T02:47:35;3.30;;;2.45;;
60169;SDS011;46042;49.444;6.862;2023-07-13T02:50:02;4.57;;;2.67;;
60169;SDS011;46042;49.444;6.862;2023-07-13T02:52:29;4.07;;;2.40;;
60169;SDS011;46042;49.444;6.862;2023-07-13T02:54:56;5.40;;;2.88;;
60169;SDS011;46042;49.444;6.862;2023-07-13T02:57:23;5.93;;;2.67;;
60169;SDS011;46042;49.444;6.862;2023-07-13T02:59:49;6.68;;;3.15;;
60169;SDS011;46042;49.444;6.862;2023-07-13T03:02:16;10.02;;;3.05;;
60169;SDS011;46042;49.444;6.862;2023-07-13T03:04:43;6.70;;;3.15;;
60169;SDS011;46042;49.444;6.862;2023-07-13T03:07:11;7.07;;;3.28;;
60169;SDS011;46042;49.444;6.862;2023-07-13T03:09:37;4.55;;;3.05;;
60169;SDS011;46042;49.444;6.862;2023-07-13T03:12:08;8.57;;;3.40;;
60169;SDS011;46042;49.444;6.862;2023-07-13T03:14:34;6.63;;;3.30;;
60169;SDS011;46042;49.444;6.862;2023-07-13T03:17:01;7.75;;;3.33;;
60169;SDS011;46042;49.444;6.862;2023-07-13T03:19:28;7.53;;;3.33;;
60169;SDS011;46042;49.444;6.862;2023-07-13T03:21:54;13.07;;;3.40;;
60169;SDS011;46042;49.444;6.862;2023-07-13T03:24:21;7.50;;;3.70;;
60169;SDS011;46042;49.444;6.862;2023-07-13T03:26:49;8.80;;;3.47;;
60169;SDS011;46042;49.444;6.862;2023-07-13T03:29:16;7.00;;;3.50;;
60169;SDS011;46042;49.444;6.862;2023-07-13T03:31:43;7.25;;;3.38;;
60169;SDS011;46042;49.444;6.862;2023-07-13T03:34:09;5.35;;;3.10;;
60169;SDS011;46042;49.444;6.862;2023-07-13T03:36:36;6.95;;;3.38;;
60169;SDS011;46042;49.444;6.862;2023-07-13T03:39:02;7.38;;;3.47;;
60169;SDS011;46042;49.444;6.862;2023-07-13T03:41:29;7.50;;;3.60;;
60169;SDS011;46042;49.444;6.862;2023-07-13T03:43:58;7.38;;;3.50;;
60169;SDS011;46042;49.444;6.862;2023-07-13T03:46:24;5.88;;;3.13;;
60169;SDS011;46042;49.444;6.862;2023-07-13T03:48:51;6.97;;;3.63;;
60169;SDS011;46042;49.444;6.862;2023-07-13T03:51:18;5.47;;;3.13;;
60169;SDS011;46042;49.444;6.862;2023-07-13T03:53:46;5.13;;;3.20;;
60169;SDS011;46042;49.444;6.862;2023-07-13T03:56:14;4.82;;;3.20;;
60169;SDS011;46042;49.444;6.862;2023-07-13T03:58:42;5.28;;;2.95;;
60169;SDS011;46042;49.444;6.862;2023-07-13T04:01:12;8.60;;;3.10;;
60169;SDS011;46042;49.444;6.862;2023-07-13T04:03:39;5.95;;;3.00;;
60169;SDS011;46042;49.444;6.862;2023-07-13T04:06:07;6.47;;;3.10;;
60169;SDS011;46042;49.444;6.862;2023-07-13T04:08:42;5.53;;;3.70;;
60169;SDS011;46042;49.444;6.862;2023-07-13T04:11:08;7.40;;;3.47;;
60169;SDS011;46042;49.444;6.862;2023-07-13T04:13:35;9.00;;;3.67;;
60169;SDS011;46042;49.444;6.862;2023-07-13T04:16:02;16.50;;;4.55;;
60169;SDS011;46042;49.444;6.862;2023-07-13T04:18:28;5.72;;;3.50;;
60169;SDS011;46042;49.444;6.862;2023-07-13T04:20:55;8.75;;;4.45;;
60169;SDS011;46042;49.444;6.862;2023-07-13T04:23:22;7.65;;;3.67;;
60169;SDS011;46042;49.444;6.862;2023-07-13T04:25:50;7.75;;;4.53;;
60169;SDS011;46042;49.444;6.862;2023-07-13T04:28:22;10.48;;;4.30;;
60169;SDS011;46042;49.444;6.862;2023-07-13T04:30:50;10.38;;;4.22;;
60169;SDS011;46042;49.444;6.862;2023-07-13T04:33:16;6.53;;;4.10;;
60169;SDS011;46042;49.444;6.862;2023-07-13T04:35:43;12.18;;;4.90;;
60169;SDS011;46042;49.444;6.862;2023-07-13T04:38:17;9.63;;;4.43;;
60169;SDS011;46042;49.444;6.862;2023-07-13T04:40:45;8.60;;;4.28;;
60169;SDS011;46042;49.444;6.862;2023-07-13T04:43:15;8.50;;;4.68;;
60169;SDS011;46042;49.444;6.862;2023-07-13T04:45:45;9.55;;;5.03;;
60169;SDS011;46042;49.444;6.862;2023-07-13T04:48:15;9.35;;;4.13;;
60169;SDS011;46042;49.444;6.862;2023-07-13T04:50:42;9.93;;;4.88;;
60169;SDS011;46042;49.444;6.862;2023-07-13T04:53:21;9.57;;;4.80;;
60169;SDS011;46042;49.444;6.862;2023-07-13T04:55:51;11.43;;;4.97;;
60169;SDS011;46042;49.444;6.862;2023-07-13T04:58:26;9.00;;;4.97;;
60169;SDS011;46042;49.444;6.862;2023-07-13T05:00:59;7.90;;;4.38;;
60169;SDS011;46042;49.444;6.862;2023-07-13T05:03:28;13.30;;;5.15;;
60169;SDS011;46042;49.444;6.862;2023-07-13T05:05:56;12.20;;;6.10;;
60169;SDS011;46042;49.444;6.862;2023-07-13T05:08:39;15.30;;;5.72;;
60169;SDS011;46042;49.444;6.862;2023-07-13T05:11:07;11.93;;;5.37;;
60169;SDS011;46042;49.444;6.862;2023-07-13T05:13:40;13.75;;;5.53;;
60169;SDS011;46042;49.444;6.862;2023-07-13T05:16:10;15.75;;;5.38;;
60169;SDS011;46042;49.444;6.862;2023-07-13T05:18:42;9.73;;;5.47;;
60169;SDS011;46042;49.444;6.862;2023-07-13T05:21:16;11.32;;;5.10;;
60169;SDS011;46042;49.444;6.862;2023-07-13T05:23:49;9.63;;;5.67;;
60169;SDS011;46042;49.444;6.862;2023-07-13T05:26:22;13.77;;;5.68;;
60169;SDS011;46042;49.444;6.862;2023-07-13T05:28:51;16.17;;;5.82;;
60169;SDS011;46042;49.444;6.862;2023-07-13T05:31:18;8.02;;;5.15;;
60169;SDS011;46042;49.444;6.862;2023-07-13T05:33:51;9.35;;;4.68;;
60169;SDS011;46042;49.444;6.862;2023-07-13T05:36:17;12.13;;;4.93;;
60169;SDS011;46042;49.444;6.862;2023-07-13T05:38:44;12.52;;;5.13;;
60169;SDS011;46042;49.444;6.862;2023-07-13T05:41:11;11.90;;;5.38;;
60169;SDS011;46042;49.444;6.862;2023-07-13T05:43:41;9.13;;;5.03;;
60169;SDS011;46042;49.444;6.862;2023-07-13T05:46:08;8.30;;;4.78;;
60169;SDS011;46042;49.444;6.862;2023-07-13T05:48:40;7.28;;;3.90;;
60169;SDS011;46042;49.444;6.862;2023-07-13T05:51:32;8.15;;;3.50;;
60169;SDS011;46042;49.444;6.862;2023-07-13T05:54:02;6.57;;;3.13;;
60169;SDS011;46042;49.444;6.862;2023-07-13T05:56:39;5.68;;;3.33;;
60169;SDS011;46042;49.444;6.862;2023-07-13T05:59:08;11.55;;;4.75;;
60169;SDS011;46042;49.444;6.862;2023-07-13T06:01:35;5.25;;;3.20;;
60169;SDS011;46042;49.444;6.862;2023-07-13T06:04:03;11.82;;;3.40;;
60169;SDS011;46042;49.444;6.862;2023-07-13T06:06:31;6.60;;;3.17;;
60169;SDS011;46042;49.444;6.862;2023-07-13T06:09:00;5.90;;;3.50;;
60169;SDS011;46042;49.444;6.862;2023-07-13T06:11:27;5.20;;;3.03;;
60169;SDS011;46042;49.444;6.862;2023-07-13T06:13:58;6.03;;;3.47;;
60169;SDS011;46042;49.444;6.862;2023-07-13T06:16:25;10.38;;;3.38;;
60169;SDS011;46042;49.444;6.862;2023-07-13T06:18:53;6.65;;;3.00;;
60169;SDS011;46042;49.444;6.862;2023-07-13T06:21:20;9.52;;;3.60;;
60169;SDS011;46042;49.444;6.862;2023-07-13T06:23:49;7.45;;;3.58;;
60169;SDS011;46042;49.444;6.862;2023-07-13T06:26:17;8.23;;;3.63;;
60169;SDS011;46042;49.444;6.862;2023-07-13T06:28:46;10.15;;;3.28;;
60169;SDS011;46042;49.444;6.862;2023-07-13T06:31:18;9.52;;;3.53;;
60169;SDS011;46042;49.444;6.862;2023-07-13T06:33:50;6.35;;;3.15;;
60169;SDS011;46042;49.444;6.862;2023-07-13T06:36:20;9.75;;;3.22;;
60169;SDS011;46042;49.444;6.862;2023-07-13T06:38:47;10.02;;;2.95;;
60169;SDS011;46042;49.444;6.862;2023-07-13T06:41:13;5.95;;;2.80;;
60169;SDS011;46042;49.444;6.862;2023-07-13T06:43:48;7.40;;;2.50;;
60169;SDS011;46042;49.444;6.862;2023-07-13T06:46:15;5.45;;;2.70;;
60169;SDS011;46042;49.444;6.862;2023-07-13T06:48:44;3.95;;;2.67;;
60169;SDS011;46042;49.444;6.862;2023-07-13T06:51:15;5.60;;;2.60;;
60169;SDS011;46042;49.444;6.862;2023-07-13T06:56:16;4.63;;;2.70;;
60169;SDS011;46042;49.444;6.862;2023-07-13T06:58:57;9.93;;;3.38;;
60169;SDS011;46042;49.444;6.862;2023-07-13T07:01:24;4.18;;;2.30;;
60169;SDS011;46042;49.444;6.862;2023-07-13T07:03:53;4.88;;;2.40;;
60169;SDS011;46042;49.444;6.862;2023-07-13T07:06:23;6.32;;;2.25;;
60169;SDS011;46042;49.444;6.862;2023-07-13T07:08:51;5.20;;;2.28;;
60169;SDS011;46042;49.444;6.862;2023-07-13T07:11:25;4.22;;;2.20;;
60169;SDS011;46042;49.444;6.862;2023-07-13T07:13:56;3.67;;;2.38;;
60169;SDS011;46042;49.444;6.862;2023-07-13T07:16:25;4.38;;;2.08;;
60169;SDS011;46042;49.444;6.862;2023-07-13T07:18:59;9.93;;;1.88;;
60169;SDS011;46042;49.444;6.862;2023-07-13T07:21:35;6.25;;;2.30;;
60169;SDS011;46042;49.444;6.862;2023-07-13T07:24:11;4.10;;;2.55;;
60169;SDS011;46042;49.444;6.862;2023-07-13T07:26:38;6.03;;;2.85;;
60169;SDS011;46042;49.444;6.862;2023-07-13T07:29:08;9.60;;;2.13;;
60169;SDS011;46042;49.444;6.862;2023-07-13T07:31:38;7.23;;;2.47;;
60169;SDS011;46042;49.444;6.862;2023-07-13T07:34:07;8.00;;;2.50;;
60169;SDS011;46042;49.444;6.862;2023-07-13T07:36:34;7.32;;;1.90;;
60169;SDS011;46042;49.444;6.862;2023-07-13T07:39:04;4.47;;;2.08;;
60169;SDS011;46042;49.444;6.862;2023-07-13T07:41:33;7.05;;;2.00;;
60169;SDS011;46042;49.444;6.862;2023-07-13T07:44:02;6.28;;;2.20;;
60169;SDS011;46042;49.444;6.862;2023-07-13T07:46:30;6.07;;;1.90;;
60169;SDS011;46042;49.444;6.862;2023-07-13T07:48:57;6.45;;;1.95;;
60169;SDS011;46042;49.444;6.862;2023-07-13T07:51:23;8.90;;;2.03;;
60169;SDS011;46042;49.444;6.862;2023-07-13T07:53:50;5.43;;;2.65;;
60169;SDS011;46042;49.444;6.862;2023-07-13T07:56:17;9.88;;;2.25;;
60169;SDS011;46042;49.444;6.862;2023-07-13T07:58:47;9.10;;;2.30;;
60169;SDS011;46042;49.444;6.862;2023-07-13T08:01:17;8.43;;;2.08;;
60169;SDS011;46042;49.444;6.862;2023-07-13T08:03:46;6.63;;;2.03;;
60169;SDS011;46042;49.444;6.862;2023-07-13T08:06:16;6.60;;;2.22;;
60169;SDS011;46042;49.444;6.862;2023-07-13T08:08:48;3.50;;;2.03;;
60169;SDS011;46042;49.444;6.862;2023-07-13T08:11:15;8.60;;;2.40;;
60169;SDS011;46042;49.444;6.862;2023-07-13T08:13:45;9.77;;;2.20;;
60169;SDS011;46042;49.444;6.862;2023-07-13T08:16:12;5.25;;;1.65;;
60169;SDS011;46042;49.444;6.862;2023-07-13T08:18:39;6.97;;;2.05;;
60169;SDS011;46042;49.444;6.862;2023-07-13T08:21:06;6.88;;;2.22;;
60169;SDS011;46042;49.444;6.862;2023-07-13T08:23:35;8.50;;;2.10;;
60169;SDS011;46042;49.444;6.862;2023-07-13T08:26:02;6.47;;;1.92;;
60169;SDS011;46042;49.444;6.862;2023-07-13T08:28:31;12.23;;;2.30;;
60169;SDS011;46042;49.444;6.862;2023-07-13T08:31:05;7.97;;;2.08;;
60169;SDS011;46042;49.444;6.862;2023-07-13T08:33:36;9.85;;;2.08;;
60169;SDS011;46042;49.444;6.862;2023-07-13T08:36:04;6.05;;;2.30;;
60169;SDS011;46042;49.444;6.862;2023-07-13T08:38:31;13.95;;;2.40;;
60169;SDS011;46042;49.444;6.862;2023-07-13T08:41:00;5.35;;;2.10;;
60169;SDS011;46042;49.444;6.862;2023-07-13T08:43:36;7.97;;;1.95;;
60169;SDS011;46042;49.444;6.862;2023-07-13T08:48:45;4.07;;;1.65;;
60169;SDS011;46042;49.444;6.862;2023-07-13T08:53:55;3.42;;;2.03;;
60169;SDS011;46042;49.444;6.862;2023-07-13T08:56:29;5.03;;;1.73;;
60169;SDS011;46042;49.444;6.862;2023-07-13T08:59:00;13.82;;;2.55;;
60169;SDS011;46042;49.444;6.862;2023-07-13T09:04:18;6.75;;;2.22;;
60169;SDS011;46042;49.444;6.862;2023-07-13T09:09:35;5.65;;;2.10;;
60169;SDS011;46042;49.444;6.862;2023-07-13T09:14:49;7.38;;;2.25;;
60169;SDS011;46042;49.444;6.862;2023-07-13T09:19:57;10.25;;;2.85;;
60169;SDS011;46042;49.444;6.862;2023-07-13T09:22:30;9.32;;;2.28;;
60169;SDS011;46042;49.444;6.862;2023-07-13T09:27:48;7.65;;;2.08;;
60169;SDS011;46042;49.444;6.862;2023-07-13T09:30:21;9.98;;;3.45;;
60169;SDS011;46042;49.444;6.862;2023-07-13T09:32:54;6.50;;;2.35;;
60169;SDS011;46042;49.444;6.862;2023-07-13T09:35:23;6.57;;;2.80;;
60169;SDS011;46042;49.444;6.862;2023-07-13T09:37:57;5.32;;;2.17;;
60169;SDS011;46042;49.444;6.862;2023-07-13T09:40:35;9.02;;;2.80;;
60169;SDS011;46042;49.444;6.862;2023-07-13T09:43:10;8.52;;;2.45;;
60169;SDS011;46042;49.444;6.862;2023-07-13T09:45:41;12.85;;;4.72;;
60169;SDS011;46042;49.444;6.862;2023-07-13T09:48:15;6.47;;;2.20;;
60169;SDS011;46042;49.444;6.862;2023-07-13T09:50:43;10.10;;;2.35;;
60169;SDS011;46042;49.444;6.862;2023-07-13T09:53:11;4.85;;;2.17;;
60169;SDS011;46042;49.444;6.862;2023-07-13T09:55:44;6.38;;;2.08;;
60169;SDS011;46042;49.444;6.862;2023-07-13T09:58:20;6.10;;;2.42;;
60169;SDS011;46042;49.444;6.862;2023-07-13T10:00:58;8.80;;;2.30;;
60169;SDS011;46042;49.444;6.862;2023-07-13T10:03:35;5.55;;;2.55;;
60169;SDS011;46042;49.444;6.862;2023-07-13T10:06:17;5.70;;;1.98;;
60169;SDS011;46042;49.444;6.862;2023-07-13T10:08:46;8.18;;;2.38;;
60169;SDS011;46042;49.444;6.862;2023-07-13T10:11:20;7.53;;;2.28;;
60169;SDS011;46042;49.444;6.862;2023-07-13T10:13:53;6.68;;;2.67;;
60169;SDS011;46042;49.444;6.862;2023-07-13T10:16:23;8.95;;;1.80;;
60169;SDS011;46042;49.444;6.862;2023-07-13T10:18:57;4.85;;;1.90;;
60169;SDS011;46042;49.444;6.862;2023-07-13T10:21:32;8.70;;;1.98;;
60169;SDS011;46042;49.444;6.862;2023-07-13T10:24:15;7.97;;;2.05;;
60169;SDS011;46042;49.444;6.862;2023-07-13T10:26:52;4.03;;;1.90;;
60169;SDS011;46042;49.444;6.862;2023-07-13T10:29:19;5.38;;;1.98;;
60169;SDS011;46042;49.444;6.862;2023-07-13T10:31:49;5.47;;;1.80;;
60169;SDS011;46042;49.444;6.862;2023-07-13T10:34:16;7.97;;;2.22;;
60169;SDS011;46042;49.444;6.862;2023-07-13T10:36:45;6.68;;;1.98;;
60169;SDS011;46042;49.444;6.862;2023-07-13T10:39:24;3.90;;;2.23;;
60169;SDS011;46042;49.444;6.862;2023-07-13T10:41:54;4.18;;;1.77;;
60169;SDS011;46042;49.444;6.862;2023-07-13T10:44:29;13.52;;;3.45;;
60169;SDS011;46042;49.444;6.862;2023-07-13T10:46:58;3.97;;;1.92;;
60169;SDS011;46042;49.444;6.862;2023-07-13T10:49:32;5.00;;;2.17;;
60169;SDS011;46042;49.444;6.862;2023-07-13T10:52:02;3.10;;;1.95;;
60169;SDS011;46042;49.444;6.862;2023-07-13T10:54:30;5.13;;;1.92;;
60169;SDS011;46042;49.444;6.862;2023-07-13T10:57:08;8.02;;;2.75;;
60169;SDS011;46042;49.444;6.862;2023-07-13T10:59:39;4.20;;;1.85;;
60169;SDS011;46042;49.444;6.862;2023-07-13T11:04:47;5.70;;;2.00;;
60169;SDS011;46042;49.444;6.862;2023-07-13T11:09:54;6.45;;;1.83;;
60169;SDS011;46042;49.444;6.862;2023-07-13T11:27:50;4.95;;;2.05;;
60169;SDS011;46042;49.444;6.862;2023-07-13T11:35:46;5.35;;;1.83;;
60169;SDS011;46042;49.444;6.862;2023-07-13T11:38:37;5.43;;;2.10;;
60169;SDS011;46042;49.444;6.862;2023-07-13T11:41:10;6.40;;;1.90;;
60169;SDS011;46042;49.444;6.862;2023-07-13T11:43:43;7.88;;;2.10;;
60169;SDS011;46042;49.444;6.862;2023-07-13T11:46:14;6.80;;;1.92;;
60169;SDS011;46042;49.444;6.862;2023-07-13T11:48:48;8.88;;;2.22;;
60169;SDS011;46042;49.444;6.862;2023-07-13T11:51:23;11.88;;;2.38;;
60169;SDS011;46042;49.444;6.862;2023-07-13T11:53:54;4.07;;;1.90;;
60169;SDS011;46042;49.444;6.862;2023-07-13T11:56:24;8.15;;;1.88;;
60169;SDS011;46042;49.444;6.862;2023-07-13T11:58:52;6.90;;;1.90;;
60169;SDS011;46042;49.444;6.862;2023-07-13T12:01:25;2.50;;;1.60;;
60169;SDS011;46042;49.444;6.862;2023-07-13T12:04:02;4.85;;;2.55;;
60169;SDS011;46042;49.444;6.862;2023-07-13T12:06:31;6.78;;;2.45;;
60169;SDS011;46042;49.444;6.862;2023-07-13T12:09:03;7.68;;;2.28;;
60169;SDS011;46042;49.444;6.862;2023-07-13T12:11:44;5.32;;;1.80;;
60169;SDS011;46042;49.444;6.862;2023-07-13T12:14:15;4.47;;;1.70;;
60169;SDS011;46042;49.444;6.862;2023-07-13T12:16:42;6.03;;;2.08;;
60169;SDS011;46042;49.444;6.862;2023-07-13T12:19:18;4.57;;;2.10;;
60169;SDS011;46042;49.444;6.862;2023-07-13T12:21:48;7.88;;;1.85;;
60169;SDS011;46042;49.444;6.862;2023-07-13T12:24:16;2.13;;;1.80;;
60169;SDS011;46042;49.444;6.862;2023-07-13T12:26:44;3.45;;;1.67;;
60169;SDS011;46042;49.444;6.862;2023-07-13T12:29:18;10.38;;;1.80;;
60169;SDS011;46042;49.444;6.862;2023-07-13T12:31:45;11.15;;;1.98;;
60169;SDS011;46042;49.444;6.862;2023-07-13T12:34:18;7.07;;;1.80;;
60169;SDS011;46042;49.444;6.862;2023-07-13T12:39:37;5.22;;;1.95;;
60169;SDS011;46042;49.444;6.862;2023-07-13T12:42:25;4.03;;;1.73;;
60169;SDS011;46042;49.444;6.862;2023-07-13T12:44:56;1.98;;;1.60;;
60169;SDS011;46042;49.444;6.862;2023-07-13T12:47:26;4.15;;;1.77;;
60169;SDS011;46042;49.444;6.862;2023-07-13T12:49:55;5.10;;;1.83;;
60169;SDS011;46042;49.444;6.862;2023-07-13T12:55:04;3.50;;;1.83;;
60169;SDS011;46042;49.444;6.862;2023-07-13T12:57:40;3.88;;;1.67;;
60169;SDS011;46042;49.444;6.862;2023-07-13T13:03:06;3.22;;;2.00;;
60169;SDS011;46042;49.444;6.862;2023-07-13T13:08:36;2.97;;;1.67;;
60169;SDS011;46042;49.444;6.862;2023-07-13T13:11:03;6.50;;;1.92;;
60169;SDS011;46042;49.444;6.862;2023-07-13T13:13:30;2.47;;;1.77;;
60169;SDS011;46042;49.444;6.862;2023-07-13T13:16:01;3.90;;;1.65;;
60169;SDS011;46042;49.444;6.862;2023-07-13T13:18:32;3.58;;;1.98;;
60169;SDS011;46042;49.444;6.862;2023-07-13T13:20:59;4.15;;;1.70;;
60169;SDS011;46042;49.444;6.862;2023-07-13T13:23:27;3.00;;;1.60;;
60169;SDS011;46042;49.444;6.862;2023-07-13T13:25:54;3.95;;;1.70;;
60169;SDS011;46042;49.444;6.862;2023-07-13T13:28:21;6.43;;;1.77;;
60169;SDS011;46042;49.444;6.862;2023-07-13T13:30:49;3.05;;;1.40;;
60169;SDS011;46042;49.444;6.862;2023-07-13T13:33:19;4.97;;;2.10;;
60169;SDS011;46042;49.444;6.862;2023-07-13T13:35:47;6.60;;;2.20;;
60169;SDS011;46042;49.444;6.862;2023-07-13T13:38:20;3.30;;;1.50;;
60169;SDS011;46042;49.444;6.862;2023-07-13T13:40:52;2.92;;;1.80;;
60169;SDS011;46042;49.444;6.862;2023-07-13T13:43:22;14.88;;;2.03;;
60169;SDS011;46042;49.444;6.862;2023-07-13T13:45:56;5.15;;;1.60;;
60169;SDS011;46042;49.444;6.862;2023-07-13T13:48:29;4.22;;;1.70;;
60169;SDS011;46042;49.444;6.862;2023-07-13T13:50:58;3.53;;;2.08;;
60169;SDS011;46042;49.444;6.862;2023-07-13T13:53:27;3.05;;;1.63;;
60169;SDS011;46042;49.444;6.862;2023-07-13T13:55:54;2.20;;;1.58;;
60169;SDS011;46042;49.444;6.862;2023-07-13T13:58:21;2.95;;;1.70;;
60169;SDS011;46042;49.444;6.862;2023-07-13T14:00:47;1.95;;;1.63;;
60169;SDS011;46042;49.444;6.862;2023-07-13T14:03:19;3.95;;;1.80;;
60169;SDS011;46042;49.444;6.862;2023-07-13T14:05:48;8.70;;;2.00;;
60169;SDS011;46042;49.444;6.862;2023-07-13T14:08:16;6.03;;;1.80;;
60169;SDS011;46042;49.444;6.862;2023-07-13T14:10:46;3.63;;;1.60;;
60169;SDS011;46042;49.444;6.862;2023-07-13T14:13:16;7.63;;;1.73;;
60169;SDS011;46042;49.444;6.862;2023-07-13T14:18:12;6.38;;;2.10;;
60169;SDS011;46042;49.444;6.862;2023-07-13T14:20:44;1.98;;;1.48;;
60169;SDS011;46042;49.444;6.862;2023-07-13T14:23:13;3.53;;;1.60;;
60169;SDS011;46042;49.444;6.862;2023-07-13T14:25:45;5.90;;;1.67;;
60169;SDS011;46042;49.444;6.862;2023-07-13T14:28:23;4.40;;;1.80;;
60169;SDS011;46042;49.444;6.862;2023-07-13T14:30:52;4.50;;;1.90;;
60169;SDS011;46042;49.444;6.862;2023-07-13T14:33:21;3.13;;;1.90;;
60169;SDS011;46042;49.444;6.862;2023-07-13T14:35:49;3.28;;;1.52;;
60169;SDS011;46042;49.444;6.862;2023-07-13T14:38:18;4.18;;;2.00;;
60169;SDS011;46042;49.444;6.862;2023-07-13T14:40:46;6.38;;;1.92;;
60169;SDS011;46042;49.444;6.862;2023-07-13T14:43:13;4.80;;;2.67;;
60169;SDS011;46042;49.444;6.862;2023-07-13T14:45:46;2.88;;;1.63;;
60169;SDS011;46042;49.444;6.862;2023-07-13T14:48:20;8.00;;;2.05;;
60169;SDS011;46042;49.444;6.862;2023-07-13T14:50:53;5.22;;;1.90;;
60169;SDS011;46042;49.444;6.862;2023-07-13T14:53:22;4.85;;;1.95;;
60169;SDS011;46042;49.444;6.862;2023-07-13T14:55:51;7.43;;;2.10;;
60169;SDS011;46042;49.444;6.862;2023-07-13T14:58:18;2.80;;;1.70;;
60169;SDS011;46042;49.444;6.862;2023-07-13T15:00:45;4.50;;;1.95;;
60169;SDS011;46042;49.444;6.862;2023-07-13T15:03:16;5.20;;;2.10;;
60169;SDS011;46042;49.444;6.862;2023-07-13T15:05:49;2.78;;;1.92;;
60169;SDS011;46042;49.444;6.862;2023-07-13T15:08:17;4.70;;;1.88;;
60169;SDS011;46042;49.444;6.862;2023-07-13T15:10:44;3.15;;;1.60;;
60169;SDS011;46042;49.444;6.862;2023-07-13T15:15:43;4.07;;;1.80;;
60169;SDS011;46042;49.444;6.862;2023-07-13T15:18:18;4.05;;;2.05;;
60169;SDS011;46042;49.444;6.862;2023-07-13T15:20:47;5.07;;;2.13;;
60169;SDS011;46042;49.444;6.862;2023-07-13T15:23:16;8.02;;;3.45;;
60169;SDS011;46042;49.444;6.862;2023-07-13T15:25:43;6.97;;;2.25;;
60169;SDS011;46042;49.444;6.862;2023-07-13T15:28:12;12.25;;;2.50;;
60169;SDS011;46042;49.444;6.862;2023-07-13T15:30:40;3.58;;;2.13;;
60169;SDS011;46042;49.444;6.862;2023-07-13T15:33:19;10.65;;;2.00;;
60169;SDS011;46042;49.444;6.862;2023-07-13T15:35:52;3.90;;;1.80;;
60169;SDS011;46042;49.444;6.862;2023-07-13T15:38:22;7.00;;;2.00;;
60169;SDS011;46042;49.444;6.862;2023-07-13T15:40:51;7.45;;;1.90;;
60169;SDS011;46042;49.444;6.862;2023-07-13T15:43:19;4.93;;;1.92;;
60169;SDS011;46042;49.444;6.862;2023-07-13T15:45:46;3.80;;;1.77;;
60169;SDS011;46042;49.444;6.862;2023-07-13T15:48:21;7.13;;;2.15;;
60169;SDS011;46042;49.444;6.862;2023-07-13T15:50:55;3.50;;;1.60;;
60169;SDS011;46042;49.444;6.862;2023-07-13T15:53:29;6.97;;;1.80;;
60169;SDS011;46042;49.444;6.862;2023-07-13T15:55:58;4.25;;;1.98;;
60169;SDS011;46042;49.444;6.862;2023-07-13T15:58:26;7.82;;;2.72;;
60169;SDS011;46042;49.444;6.862;2023-07-13T16:00:54;7.53;;;2.20;;
60169;SDS011;46042;49.444;6.862;2023-07-13T16:03:21;4.45;;;1.70;;
60169;SDS011;46042;49.444;6.862;2023-07-13T16:05:48;6.68;;;1.67;;
60169;SDS011;46042;49.444;6.862;2023-07-13T16:08:27;7.65;;;1.77;;